Meteorología y climatología de Navarra
Datos de la estación - Meteo Navarra

Estación de Urbasa GN

Altitud 886 m.


Datos desde el 15/02/2020 hasta el 16/02/2020 en horario solar
Los datos son PROVISIONALES

Anterior Página 1 de 1 Siguiente Descargar: Formato para Excel 2000 o superior   Formato csv   Formato para OpenOffice Calc
Fecha Temperatura Humedad relativa Radiación global Insolación Precipitación Vel. viento 10 m Vel. viento 10 m Dir. viento 10 m
ºC % W/m² s l/m² m/s km/h º
15/02/2020 0:00 -1.1 97 0.0 0 0.0 0.0 0.0 0
15/02/2020 0:10 -1.2 97 0.0 0 0.0 0.1 0.5 259
15/02/2020 0:20 -1.3 97 0.0 0 0.0 0.3 0.9 231
15/02/2020 0:30 -1.6 97 0.0 0 0.0 0.1 0.4 151
15/02/2020 0:40 -1.5 97 0.0 0 0.0 0.0 0.0 93
15/02/2020 0:50 -1.4 97 0.0 0 0.0 0.1 0.3 172
15/02/2020 1:00 -1.6 97 0.0 0 0.0 0.3 0.9 75
15/02/2020 1:10 -1.6 97 0.0 0 0.0 0.2 0.8 240
15/02/2020 1:20 -1.8 97 0.0 0 0.0 0.3 1.0 210
15/02/2020 1:30 -1.8 97 0.0 0 0.0 0.1 0.5 179
15/02/2020 1:40 -1.8 97 0.0 0 0.0 0.2 0.6 24
15/02/2020 1:50 -1.9 97 0.0 0 0.0 0.1 0.4 191
15/02/2020 2:00 -2.1 97 0.0 0 0.0 0.3 0.9 102
15/02/2020 2:10 -2.0 97 0.0 0 0.0 0.0 0.1 94
15/02/2020 2:20 -2.0 97 0.0 0 0.0 0.0 0.0 0
15/02/2020 2:30 -2.3 97 0.0 0 0.0 0.0 0.0 0
15/02/2020 2:40 -2.4 97 0.0 0 0.0 0.0 0.1 115
15/02/2020 2:50 -2.2 97 0.0 0 0.0 0.1 0.3 338
15/02/2020 3:00 -2.4 97 0.0 0 0.0 0.5 1.8 61
15/02/2020 3:10 -2.4 97 0.0 0 0.0 0.1 0.2 45
15/02/2020 3:20 -2.5 97 0.0 0 0.0 0.1 0.3 267
15/02/2020 3:30 -2.4 97 0.0 0 0.0 0.4 1.5 241
15/02/2020 3:40 -2.7 97 0.0 0 0.0 0.3 1.0 267
15/02/2020 3:50 -2.5 97 0.0 0 0.0 0.1 0.2 260
15/02/2020 4:00 -2.8 97 0.0 0 0.0 0.0 0.0 0
15/02/2020 4:10 -2.5 97 0.0 0 0.0 0.3 1.1 261
15/02/2020 4:20 -2.9 97 0.0 0 0.0 0.3 1.2 61
15/02/2020 4:30 -2.7 97 0.0 0 0.0 0.2 0.6 132
15/02/2020 4:40 -3.0 97 0.0 0 0.0 0.5 1.7 76
15/02/2020 4:50 -2.6 97 0.0 0 0.0 0.6 2.2 77
15/02/2020 5:00 -2.6 97 0.0 0 0.0 0.8 3.0 65
15/02/2020 5:10 -2.7 97 0.0 0 0.0 0.2 0.6 316
15/02/2020 5:20 -2.7 97 0.0 0 0.0 0.1 0.4 216
15/02/2020 5:30 -2.7 97 0.0 0 0.0 0.0 0.1 38
15/02/2020 5:40 -2.7 97 0.0 0 0.0 0.1 0.3 288
15/02/2020 5:50 -3.0 97 0.0 0 0.0 0.0 0.0 0
15/02/2020 6:00 -3.1 96 0.0 0 0.0 0.0 0.0 255
15/02/2020 6:10 -3.2 96 0.0 0 0.0 0.2 0.5 310
15/02/2020 6:20 -3.2 96 0.0 0 0.0 0.0 0.0 0
15/02/2020 6:30 -3.1 97 0.0 0 0.0 0.0 0.0 0
15/02/2020 6:40 -3.2 96 0.0 0 0.0 0.0 0.1 73
15/02/2020 6:50 -3.4 96 0.0 0 0.0 0.1 0.2 42
15/02/2020 7:00 -3.5 96 0.0 0 0.0 0.3 1.0 103
15/02/2020 7:10 -3.0 97 0.0 0 0.0 0.4 1.5 35
15/02/2020 7:20 -3.6 96 0.0 0 0.0 0.3 1.1 173
15/02/2020 7:30 -3.2 96 6.9 0 0.0 0.2 0.8 171
15/02/2020 7:40 -3.3 96 23.1 0 0.0 0.5 1.8 113
15/02/2020 7:50 -2.8 96 51.7 280 0.0 0.4 1.3 31
15/02/2020 8:00 -2.3 97 94.6 600 0.0 0.1 0.5 221
15/02/2020 8:10 -1.7 97 113.6 600 0.0 0.1 0.5 154
15/02/2020 8:20 -0.9 97 154.6 600 0.0 0.0 0.0 84
15/02/2020 8:30 -0.1 96 194.3 600 0.0 0.5 1.7 72
15/02/2020 8:40 0.4 96 204.6 600 0.0 0.7 2.6 27
15/02/2020 8:50 1.6 96 195.9 600 0.0 0.5 1.6 135
15/02/2020 9:00 3.0 94 214.6 600 0.0 1.0 3.5 85
15/02/2020 9:10 4.6 91 246.8 600 0.0 0.9 3.4 150
15/02/2020 9:20 6.2 89 292.2 600 0.0 0.9 3.4 157
15/02/2020 9:30 7.2 85 335.7 600 0.0 2.0 7.1 122
15/02/2020 9:40 7.3 83 374.3 600 0.0 2.0 7.2 141
15/02/2020 9:50 7.7 83 405.7 600 0.0 2.5 9.0 150
15/02/2020 10:00 7.8 82 428.9 600 0.0 2.6 9.4 152
15/02/2020 10:10 8.2 81 457.0 600 0.0 2.6 9.3 136
15/02/2020 10:20 8.9 80 481.6 600 0.0 2.4 8.8 144
15/02/2020 10:30 8.9 79 492.7 600 0.0 2.9 10.4 143
15/02/2020 10:40 9.3 78 515.7 600 0.0 3.7 13.4 125
15/02/2020 10:50 9.3 77 531.6 600 0.0 4.1 14.9 128
15/02/2020 11:00 9.4 77 545.6 600 0.0 3.7 13.4 141
15/02/2020 11:10 9.7 76 559.9 600 0.0 3.3 11.9 146
15/02/2020 11:20 9.7 76 567.2 600 0.0 3.0 10.9 158
15/02/2020 11:30 10.1 75 576.6 600 0.0 3.0 10.8 143
15/02/2020 11:40 10.2 73 587.0 600 0.0 3.0 10.7 137
15/02/2020 11:50 10.9 71 594.5 600 0.0 2.3 8.1 164
15/02/2020 12:00 11.0 71 600.3 600 0.0 3.2 11.5 129
15/02/2020 12:10 11.5 69 610.0 600 0.0 3.2 11.4 154
15/02/2020 12:20 11.5 69 594.2 600 0.0 3.6 12.9 138
15/02/2020 12:30 11.6 69 615.3 600 0.0 3.4 12.3 138
15/02/2020 12:40 11.8 67 513.6 600 0.0 3.1 11.2 146
15/02/2020 12:50 11.3 69 532.2 600 0.0 4.2 15.0 127
15/02/2020 13:00 11.0 69 439.5 600 0.0 4.0 14.4 127
15/02/2020 13:10 11.3 68 485.1 600 0.0 3.7 13.2 145
15/02/2020 13:20 11.3 69 389.4 600 0.0 3.0 10.7 148
15/02/2020 13:30 11.2 70 390.1 600 0.0 3.9 13.9 138
15/02/2020 13:40 11.0 70 434.3 600 0.0 4.7 16.8 144
15/02/2020 13:50 10.9 71 327.7 600 0.0 4.9 17.7 148
15/02/2020 14:00 10.9 71 363.3 600 0.0 4.6 16.7 158
15/02/2020 14:10 11.1 71 390.3 600 0.0 3.8 13.5 162
15/02/2020 14:20 11.1 70 430.9 600 0.0 2.4 8.7 172
15/02/2020 14:30 12.6 62 449.7 600 0.0 2.1 7.4 190
15/02/2020 14:40 12.2 63 314.6 600 0.0 2.5 9.0 175
15/02/2020 14:50 11.9 65 304.2 560 0.0 3.0 10.8 161
15/02/2020 15:00 11.5 67 199.1 46 0.0 3.2 11.3 160
15/02/2020 15:10 11.1 68 167.5 0 0.0 3.4 12.1 159
15/02/2020 15:20 10.9 69 138.0 0 0.0 2.8 10.2 157
15/02/2020 15:30 11.0 68 117.6 0 0.0 2.9 10.3 166
15/02/2020 15:40 11.1 67 106.1 0 0.0 2.5 8.9 169
15/02/2020 15:50 11.1 68 112.9 0 0.0 1.8 6.4 171
15/02/2020 16:00 10.9 68 89.2 0 0.0 2.5 9.1 159
15/02/2020 16:10 10.6 71 59.8 0 0.0 3.3 11.7 153
15/02/2020 16:20 10.1 73 52.2 0 0.0 2.6 9.2 155
15/02/2020 16:30 10.0 73 50.2 0 0.0 2.1 7.7 153
15/02/2020 16:40 10.0 74 54.2 0 0.0 1.7 6.2 158
15/02/2020 16:50 10.0 74 49.0 0 0.0 2.7 9.8 166
15/02/2020 17:00 9.8 75 42.2 0 0.0 3.3 11.8 164
15/02/2020 17:10 9.6 76 44.7 264 0.0 2.9 10.4 161
15/02/2020 17:20 9.5 76 24.4 0 0.0 2.6 9.3 176
15/02/2020 17:30 9.3 77 2.3 0 0.0 1.8 6.4 175
15/02/2020 17:40 9.1 76 0.0 0 0.0 1.9 6.8 151
15/02/2020 17:50 8.9 76 0.0 0 0.0 2.0 7.1 160
15/02/2020 18:00 8.9 76 0.0 0 0.0 1.7 6.1 192
15/02/2020 18:10 8.7 77 0.0 0 0.0 0.8 3.0 202
15/02/2020 18:20 8.5 77 0.0 0 0.0 0.8 2.7 177
15/02/2020 18:30 8.2 79 0.0 0 0.0 0.9 3.3 227
15/02/2020 18:40 7.4 82 0.0 0 0.0 1.1 4.1 239
15/02/2020 18:50 7.3 83 0.0 0 0.0 1.0 3.6 219
15/02/2020 19:00 7.3 83 0.0 0 0.0 1.1 4.1 185
15/02/2020 19:10 7.3 82 0.0 0 0.0 0.9 3.2 182
15/02/2020 19:20 6.7 83 0.0 0 0.0 0.8 2.8 154
15/02/2020 19:30 6.1 86 0.0 0 0.0 0.9 3.3 100
15/02/2020 19:40 5.6 88 0.0 0 0.0 0.6 2.1 66
15/02/2020 19:50 5.0 89 0.0 0 0.0 0.7 2.5 76
15/02/2020 20:00 4.6 90 0.0 0 0.0 1.3 4.5 88
15/02/2020 20:10 4.3 92 0.0 0 0.0 0.7 2.6 133
15/02/2020 20:20 4.5 93 0.0 0 0.0 0.3 1.1 129
15/02/2020 20:30 4.2 92 0.0 0 0.0 0.5 1.8 190
15/02/2020 20:40 3.9 92 0.0 0 0.0 0.9 3.1 160
15/02/2020 20:50 4.2 95 0.0 0 0.0 2.0 7.3 185
15/02/2020 21:00 6.5 90 0.0 0 0.0 1.1 3.9 204
15/02/2020 21:10 4.8 87 0.0 0 0.0 0.8 3.0 221
15/02/2020 21:20 4.2 93 0.0 0 0.0 1.7 6.0 196
15/02/2020 21:30 5.1 94 0.0 0 0.0 1.6 5.6 206
15/02/2020 21:40 6.2 93 0.0 0 0.0 2.2 7.9 207
15/02/2020 21:50 7.4 89 0.0 0 0.0 1.9 6.8 207
15/02/2020 22:00 7.5 89 0.0 0 0.0 1.9 6.8 206
15/02/2020 22:10 7.5 88 0.0 0 0.0 1.9 6.9 206
15/02/2020 22:20 7.4 88 0.0 0 0.0 2.4 8.7 185
15/02/2020 22:30 7.7 88 0.0 0 0.0 2.6 9.3 173
15/02/2020 22:40 7.8 87 0.0 0 0.0 2.3 8.1 165
15/02/2020 22:50 7.5 88 0.0 0 0.0 1.8 6.3 146
15/02/2020 23:00 7.6 88 0.0 0 0.0 2.0 7.2 148
15/02/2020 23:10 6.7 89 0.0 0 0.0 1.8 6.4 171
15/02/2020 23:20 6.2 92 0.0 0 0.0 1.9 6.9 156
15/02/2020 23:30 6.9 91 0.0 0 0.0 1.3 4.5 150
15/02/2020 23:40 6.3 90 0.0 0 0.0 0.4 1.5 191
15/02/2020 23:50 5.3 91 0.0 0 0.0 0.7 2.5 170
Anterior Página 1 de 1 Siguiente

NOTA: Tipo de datos según el color:
   - Valores diarios o 10 minutos correctos
   - Valores diarios calculados a partir de un número de datos 10 minutos menor que 144 y mayor que 120, o de un número de datos semihorarios menor que 48 y mayor que 40 (caso de las estaciones de INTIA y del Ministerio)
   - Valores diez minutos estimados


Contacto        Enlaces        Aviso legal